Time;durP1;ratioP1;P1;durP2;ratioP2;P2;SDS_P1;SDS_P2;PMS_P1;PMS_P2;Temp;Humidity;BMP_temperature;BMP_pressure;BME280_temperature;BME280_humidity;BME280_pressure;Samples;Min_cycle;Max_cycle;Signal;HPM_P1;HPM_P2
2022/09/03 00:00:34;;;;;;;;;;;;;;;28.55;42.15;93975.19;5006443;28;7165;-60
2022/09/03 00:03:21;;;;;;;;;;;;;;;28.52;42.23;93977.00;4972511;28;7433;-60
2022/09/03 00:06:38;;;;;;;;;;;;;;;28.53;42.15;93984.03;5013391;28;9497;-60
2022/09/03 00:09:28;;;;;;;;;;;;;;;28.52;41.89;93990.84;4973737;28;6941;-60
2022/09/03 00:12:14;;;;;;;;;;;;;;;28.51;42.23;93991.38;4964700;28;7314;-60
2022/09/03 00:14:49;;;;;;;;;;;;;;;28.49;42.32;93996.72;4948544;28;7435;-60
2022/09/03 00:17:38;;;;;;;;;;;;;;;28.46;42.14;93995.78;4967135;28;7375;-60
2022/09/03 00:20:23;;;;;;;;;;;;;;;28.44;42.12;93998.34;4947011;28;7329;-60
2022/09/03 00:22:56;;;;;;;;;;;;;;;28.41;42.06;93991.09;4950382;28;7003;-60
2022/09/03 00:25:41;;;;;;;;;;;;;;;28.39;42.23;93996.44;4966573;28;8314;-60
2022/09/03 00:28:17;;;;;;;;;;;;;;;28.35;42.42;93990.50;4968051;28;7038;-60
2022/09/03 00:31:23;;;;;;;;;;;;;;;28.34;42.65;93997.31;4966245;28;7177;-60
2022/09/03 00:34:01;;;;;;;;;;;;;;;28.33;42.63;93998.59;4967797;28;7048;-60
2022/09/03 00:36:57;;;;;;;;;;;;;;;28.32;42.58;94010.94;4966469;28;7067;-60
2022/09/03 00:39:28;;;;;;;;;;;;;;;28.31;42.50;94012.22;4892444;29;7219;-60
2022/09/03 00:42:08;;;;;;;;;;;;;;;28.32;42.13;94025.50;4888517;29;7339;-60
2022/09/03 00:44:59;;;;;;;;;;;;;;;28.32;42.22;94031.03;4894581;29;6964;-60
2022/09/03 00:48:11;;;;;;;;;;;;;;;28.32;42.08;94013.69;4927249;29;8550;-60
2022/09/03 00:50:44;;;;;;;;;;;;;;;28.32;42.23;94024.75;4904138;29;7212;-60
2022/09/03 00:53:50;;;;;;;;;;;;;;;28.31;42.05;94015.75;4924572;29;7607;-60
2022/09/03 00:56:22;;;;;;;;;;;;;;;28.33;41.98;94020.72;4900735;29;7194;-61
2022/09/03 00:59:01;;;;;;;;;;;;;;;28.32;41.60;94008.91;4927214;29;8618;-60
2022/09/03 01:02:04;;;;;;;;;;;;;;;28.33;42.08;94002.13;4925282;29;7280;-60
2022/09/03 01:04:45;;;;;;;;;;;;;;;28.35;41.94;94015.41;4911286;29;7006;-60
2022/09/03 01:07:13;;;;;;;;;;;;;;;28.33;41.50;93987.53;4925316;29;7445;-60
2022/09/03 01:09:53;;;;;;;;;;;;;;;28.32;41.97;93980.50;4919891;29;7081;-60
2022/09/03 01:12:40;;;;;;;;;;;;;;;28.31;41.72;93988.09;4923614;29;7296;-60
2022/09/03 01:15:26;;;;;;;;;;;;;;;28.31;41.74;93979.03;4930676;28;7886;-60
2022/09/03 01:18:14;;;;;;;;;;;;;;;28.27;42.06;93973.09;5008608;28;7537;-60
2022/09/03 01:20:51;;;;;;;;;;;;;;;28.25;42.04;93964.59;5013908;28;7378;-60
2022/09/03 01:23:53;;;;;;;;;;;;;;;28.24;41.93;93974.16;5002108;28;7238;-60
2022/09/03 01:26:53;;;;;;;;;;;;;;;28.24;41.99;93971.41;5007684;28;7010;-60
2022/09/03 01:29:41;;;;;;;;;;;;;;;28.22;41.95;93960.13;4994883;28;7017;-60
2022/09/03 01:32:22;;;;;;;;;;;;;;;28.20;42.14;93952.38;4992555;28;7338;-60
2022/09/03 01:35:15;;;;;;;;;;;;;;;28.21;41.87;93958.63;4992885;28;7026;-60
2022/09/03 01:38:08;;;;;;;;;;;;;;;28.21;42.01;93961.41;4994458;28;7573;-60
2022/09/03 01:44:09;;;;;;;;;;;;;;;28.18;41.61;93990.16;4994985;28;7007;-60
2022/09/03 01:46:40;;;;;;;;;;;;;;;28.18;41.80;93998.44;5007551;28;7719;-60
2022/09/03 01:49:29;;;;;;;;;;;;;;;28.17;42.01;93999.72;5010917;28;7458;-60
2022/09/03 01:52:25;;;;;;;;;;;;;;;28.16;41.94;94004.53;5010131;28;7215;-60
2022/09/03 01:55:22;;;;;;;;;;;;;;;28.15;41.98;94005.78;4988717;28;7081;-60
2022/09/03 01:58:08;;;;;;;;;;;;;;;28.15;42.13;94010.56;4997868;28;7517;-60
2022/09/03 02:00:40;;;;;;;;;;;;;;;28.14;41.70;94003.56;4973957;28;7317;-60
2022/09/03 02:03:09;;;;;;;;;;;;;;;28.13;41.69;94007.59;5007031;28;7304;-60
2022/09/03 02:05:42;;;;;;;;;;;;;;;28.16;41.24;94006.53;4987599;28;7486;-60
2022/09/03 02:08:11;;;;;;;;;;;;;;;28.14;41.54;94004.28;5006062;28;6991;-60
2022/09/03 02:11:01;;;;;;;;;;;;;;;28.14;41.56;94003.56;5009276;28;7183;-60
2022/09/03 02:13:34;;;;;;;;;;;;;;;28.13;41.83;94008.34;4990616;28;7097;-60
2022/09/03 02:16:17;;;;;;;;;;;;;;;28.14;41.29;94006.34;4989560;28;7065;-60
2022/09/03 02:18:53;;;;;;;;;;;;;;;28.13;41.65;94004.84;4990774;28;6996;-61
2022/09/03 02:21:22;;;;;;;;;;;;;;;28.12;41.45;94012.38;5010379;28;7214;-60
2022/09/03 02:23:50;;;;;;;;;;;;;;;28.13;41.72;94013.13;4993499;28;7496;-61
2022/09/03 02:26:26;;;;;;;;;;;;;;;28.12;41.48;94006.13;4990290;28;9337;-60
2022/09/03 02:28:55;;;;;;;;;;;;;;;28.12;41.42;94017.19;4996478;28;9143;-60
2022/09/03 02:31:28;;;;;;;;;;;;;;;28.10;41.16;94003.16;4981553;28;8516;-60
2022/09/03 02:34:16;;;;;;;;;;;;;;;28.09;40.87;94001.66;5006851;28;7325;-60
2022/09/03 02:36:54;;;;;;;;;;;;;;;28.08;41.26;94000.16;5006363;28;7194;-60
2022/09/03 02:39:20;;;;;;;;;;;;;;;28.09;41.41;93999.66;5009459;28;8663;-60
2022/09/03 02:41:56;;;;;;;;;;;;;;;28.08;41.06;93994.63;4996422;28;7075;-60
2022/09/03 02:44:32;;;;;;;;;;;;;;;28.08;41.35;94002.94;5011195;28;7901;-60
2022/09/03 02:47:01;;;;;;;;;;;;;;;28.08;41.26;93997.41;5001487;28;8332;-60
2022/09/03 02:49:34;;;;;;;;;;;;;;;28.07;41.74;93998.69;5008180;28;7087;-60
2022/09/03 02:52:11;;;;;;;;;;;;;;;28.08;40.89;94003.69;4991575;28;7117;-60
2022/09/03 02:54:49;;;;;;;;;;;;;;;28.08;41.34;94000.16;4991878;28;7000;-60
2022/09/03 02:57:18;;;;;;;;;;;;;;;28.07;41.49;93991.16;4992026;28;9050;-60
2022/09/03 02:59:52;;;;;;;;;;;;;;;28.07;41.52;93990.41;4990732;28;9027;-60
2022/09/03 03:02:26;;;;;;;;;;;;;;;28.06;41.31;93994.44;5006902;28;7171;-60
2022/09/03 03:05:01;;;;;;;;;;;;;;;28.05;41.93;93995.72;4993313;28;7097;-60
2022/09/03 03:08:05;;;;;;;;;;;;;;;28.05;41.54;93996.47;5009897;28;7660;-60
2022/09/03 03:11:03;;;;;;;;;;;;;;;28.06;41.46;93994.44;4969252;28;9366;-60
2022/09/03 03:13:30;;;;;;;;;;;;;;;28.05;41.57;94002.00;4956282;28;9474;-60
2022/09/03 03:16:01;;;;;;;;;;;;;;;28.03;41.22;94001.03;4957993;28;7512;-60
2022/09/03 03:18:27;;;;;;;;;;;;;;;28.04;41.30;94008.03;4953701;28;7827;-60
2022/09/03 03:20:56;;;;;;;;;;;;;;;28.05;41.35;94012.31;4969459;28;7165;-60
2022/09/03 03:23:38;;;;;;;;;;;;;;;28.05;41.49;94017.84;4957765;28;7311;-60
2022/09/03 03:26:33;;;;;;;;;;;;;;;28.03;41.02;94026.69;4953055;28;9090;-60
2022/09/03 03:29:16;;;;;;;;;;;;;;;28.03;41.39;94023.91;4912596;29;7651;-60
2022/09/03 03:31:42;;;;;;;;;;;;;;;28.02;41.16;94024.44;4914256;29;9570;-60
2022/09/03 03:34:22;;;;;;;;;;;;;;;28.02;41.26;94036.25;4898853;29;7960;-60
2022/09/03 03:36:49;;;;;;;;;;;;;;;28.03;41.22;94039.75;4897202;29;9731;-60
2022/09/03 03:39:47;;;;;;;;;;;;;;;28.02;41.26;94043.78;4912530;29;9297;-60
2022/09/03 03:42:33;;;;;;;;;;;;;;;28.02;40.86;94035.50;4879067;29;6953;-60
2022/09/03 03:45:19;;;;;;;;;;;;;;;28.02;41.46;94041.78;4879093;29;7205;-60
2022/09/03 03:47:45;;;;;;;;;;;;;;;28.01;41.24;94056.13;4877395;29;6926;-60
2022/09/03 03:50:20;;;;;;;;;;;;;;;28.01;41.02;94056.13;4869112;29;7197;-60
2022/09/03 03:53:05;;;;;;;;;;;;;;;28.01;41.08;94050.59;4907120;29;7065;-60
2022/09/03 03:55:33;;;;;;;;;;;;;;;28.00;41.16;94055.38;4908830;29;7441;-60
2022/09/03 03:58:09;;;;;;;;;;;;;;;28.00;40.84;94054.63;4909946;29;9166;-61
2022/09/03 04:00:36;;;;;;;;;;;;;;;28.00;41.19;94060.16;4889747;29;7218;-60
2022/09/03 04:03:31;;;;;;;;;;;;;;;28.00;41.18;94062.94;4894228;29;9739;-60
2022/09/03 04:06:16;;;;;;;;;;;;;;;27.99;41.33;94067.72;4919039;28;7308;-60
2022/09/03 04:08:45;;;;;;;;;;;;;;;27.98;40.92;94059.97;4941634;28;7379;-60
2022/09/03 04:11:16;;;;;;;;;;;;;;;27.99;41.06;94073.22;4921352;29;7245;-60
2022/09/03 04:13:45;;;;;;;;;;;;;;;27.98;40.88;94069.00;4936582;28;9136;-60
2022/09/03 04:16:14;;;;;;;;;;;;;;;27.99;41.40;94064.22;4940503;28;7883;-60
2022/09/03 04:18:41;;;;;;;;;;;;;;;27.99;40.62;94064.22;4955579;28;9703;-60
2022/09/03 04:21:13;;;;;;;;;;;;;;;27.98;41.36;94062.72;4964661;28;8066;-60
2022/09/03 04:23:43;;;;;;;;;;;;;;;27.97;41.24;94058.47;4964064;28;7165;-60
2022/09/03 04:26:13;;;;;;;;;;;;;;;27.96;41.14;94056.97;4978002;28;7344;-60
2022/09/03 04:28:54;;;;;;;;;;;;;;;27.95;41.09;94053.44;4978014;28;7129;-60
2022/09/03 04:32:52;;;;;;;;;;;;;;;27.96;40.95;94057.72;4973386;28;7287;-61
2022/09/03 04:34:30;;;;;;;;;;;;;;;27.96;41.14;94043.13;4978127;28;7170;-60
2022/09/03 04:37:34;;;;;;;;;;;;;;;27.95;41.05;94053.44;4994236;28;9585;-60
2022/09/03 04:40:24;;;;;;;;;;;;;;;27.96;41.09;94043.88;4958462;28;7201;-60
2022/09/03 04:42:57;;;;;;;;;;;;;;;27.95;41.27;94044.44;4968667;28;7169;-60
2022/09/03 04:45:25;;;;;;;;;;;;;;;27.94;41.18;94038.16;4934447;28;9419;-60
2022/09/03 04:48:09;;;;;;;;;;;;;;;27.95;40.98;94038.91;4951212;28;7120;-60
2022/09/03 04:50:45;;;;;;;;;;;;;;;27.94;41.26;94031.88;4945420;28;7295;-60
2022/09/03 04:53:23;;;;;;;;;;;;;;;27.94;40.75;94034.63;4935060;28;8481;-60
2022/09/03 04:55:53;;;;;;;;;;;;;;;27.92;41.28;94032.41;4966986;28;7530;-60
2022/09/03 04:58:19;;;;;;;;;;;;;;;27.93;41.88;94035.91;4947008;28;7279;-60
2022/09/03 05:00:47;;;;;;;;;;;;;;;27.92;41.19;94032.41;4945973;28;7153;-60
2022/09/03 05:03:14;;;;;;;;;;;;;;;27.92;41.27;94032.41;4949504;28;7243;-60
2022/09/03 05:05:44;;;;;;;;;;;;;;;27.93;41.37;94030.38;4946564;28;9786;-60
2022/09/03 05:08:15;;;;;;;;;;;;;;;27.93;41.46;94035.91;4962835;28;7004;-60
2022/09/03 05:10:42;;;;;;;;;;;;;;;27.93;41.23;94038.66;4962303;28;9290;-60
2022/09/03 05:13:23;;;;;;;;;;;;;;;27.93;41.33;94044.19;4988315;28;7394;-60
2022/09/03 05:15:49;;;;;;;;;;;;;;;27.92;41.61;94043.47;5006394;28;7275;-60
2022/09/03 05:18:15;;;;;;;;;;;;;;;27.93;41.52;94049.72;4992957;28;7187;-60
2022/09/03 05:20:41;;;;;;;;;;;;;;;27.91;41.58;94036.44;5008419;28;7251;-60
2022/09/03 05:23:07;;;;;;;;;;;;;;;27.93;41.57;94050.47;4995174;28;7286;-60
2022/09/03 05:25:36;;;;;;;;;;;;;;;27.92;41.38;94053.78;4992972;28;7953;-60
2022/09/03 05:28:16;;;;;;;;;;;;;;;27.91;41.52;94043.97;4998012;28;7073;-60
2022/09/03 05:31:04;;;;;;;;;;;;;;;27.93;41.75;94049.72;4992987;28;7777;-60
2022/09/03 05:33:49;;;;;;;;;;;;;;;27.91;41.75;94041.22;4988274;28;8967;-60
2022/09/03 05:36:21;;;;;;;;;;;;;;;27.90;41.75;94034.22;5011643;28;9101;-61
2022/09/03 05:38:50;;;;;;;;;;;;;;;27.90;41.56;94046.03;4991377;28;7336;-60
2022/09/03 05:41:35;;;;;;;;;;;;;;;27.88;41.80;94042.31;4983320;28;6928;-60
2022/09/03 05:44:16;;;;;;;;;;;;;;;27.89;41.95;94038.25;4993616;28;7235;-60
2022/09/03 05:46:54;;;;;;;;;;;;;;;27.89;42.31;94025.19;4988089;28;6972;-60
2022/09/03 05:49:34;;;;;;;;;;;;;;;27.91;42.31;94021.88;4995409;28;9531;-61
2022/09/03 05:52:15;;;;;;;;;;;;;;;27.91;42.22;94024.63;5008490;28;7952;-60
2022/09/03 05:54:52;;;;;;;;;;;;;;;27.91;42.04;94014.34;5010402;28;7364;-60
2022/09/03 05:57:29;;;;;;;;;;;;;;;27.91;42.29;94019.09;4990282;28;7237;-60
2022/09/03 06:00:03;;;;;;;;;;;;;;;27.91;42.32;94024.63;4987645;28;7470;-60
2022/09/03 06:03:00;;;;;;;;;;;;;;;27.90;42.37;94012.84;4991441;28;9319;-60
2022/09/03 06:05:35;;;;;;;;;;;;;;;27.92;42.29;94009.56;4934981;28;7207;-59
2022/09/03 06:08:01;;;;;;;;;;;;;;;27.90;42.28;93996.28;4934638;28;9402;-61
2022/09/03 06:10:26;;;;;;;;;;;;;;;27.92;42.45;93985.44;4957862;28;9435;-60
2022/09/03 06:13:03;;;;;;;;;;;;;;;27.89;41.94;93969.16;4940314;28;9319;-61
2022/09/03 06:15:29;;;;;;;;;;;;;;;27.91;42.15;93983.94;4937561;28;7118;-61
2022/09/03 06:17:55;;;;;;;;;;;;;;;27.92;42.08;93988.19;4950112;28;9397;-60
2022/09/03 06:20:26;;;;;;;;;;;;;;;27.91;42.08;93986.69;4943559;28;9321;-60
2022/09/03 06:22:55;;;;;;;;;;;;;;;27.92;42.19;93995.72;4964576;28;9656;-60
2022/09/03 06:25:24;;;;;;;;;;;;;;;27.92;42.06;93990.19;4954931;28;7300;-60
2022/09/03 06:28:19;;;;;;;;;;;;;;;27.91;42.13;93981.16;4940923;28;7339;-61
2022/09/03 06:31:07;;;;;;;;;;;;;;;27.91;41.76;93974.88;4912266;29;8361;-61
2022/09/03 06:33:36;;;;;;;;;;;;;;;27.91;42.21;93974.88;4913072;29;10392;-60
2022/09/03 06:36:18;;;;;;;;;;;;;;;27.91;42.13;93975.63;4932862;29;7329;-60
2022/09/03 06:39:05;;;;;;;;;;;;;;;27.93;41.77;93975.09;4933274;28;7204;-61
2022/09/03 06:41:40;;;;;;;;;;;;;;;27.92;41.51;93970.84;4941476;28;9445;-61
2022/09/03 06:44:10;;;;;;;;;;;;;;;27.91;42.23;93972.13;4951488;28;9362;-60
2022/09/03 06:46:41;;;;;;;;;;;;;;;27.90;42.57;93970.66;4969895;28;7389;-60
2022/09/03 06:49:07;;;;;;;;;;;;;;;27.92;42.28;93965.31;4956480;28;9330;-60
2022/09/03 06:51:34;;;;;;;;;;;;;;;27.92;43.04;93968.09;4954100;28;7259;-61
2022/09/03 06:54:05;;;;;;;;;;;;;;;27.90;42.74;93957.56;4971325;28;7197;-61
2022/09/03 06:57:14;;;;;;;;;;;;;;;27.87;42.54;93958.63;4953199;28;9272;-60
2022/09/03 06:59:49;;;;;;;;;;;;;;;27.90;42.22;93962.34;4969469;28;7541;-60
2022/09/03 07:02:15;;;;;;;;;;;;;;;27.90;42.51;93968.63;4950915;28;9561;-61
2022/09/03 07:04:50;;;;;;;;;;;;;;;27.93;42.24;93958.50;4951897;28;7514;-61
2022/09/03 07:07:34;;;;;;;;;;;;;;;27.94;42.61;93957.97;4953185;28;9527;-61
2022/09/03 07:10:00;;;;;;;;;;;;;;;27.94;42.64;93962.75;5005734;28;7127;-61
2022/09/03 07:13:02;;;;;;;;;;;;;;;27.95;42.43;93955.97;5009279;28;7559;-60
2022/09/03 07:15:28;;;;;;;;;;;;;;;27.91;42.30;93953.53;4949666;28;7068;-61
2022/09/03 07:17:56;;;;;;;;;;;;;;;27.92;42.40;93954.25;4953046;28;7725;-61
2022/09/03 07:20:24;;;;;;;;;;;;;;;27.91;42.76;93961.81;4940501;28;7211;-60
2022/09/03 07:22:55;;;;;;;;;;;;;;;27.92;42.76;93955.00;4933505;28;7538;-61
2022/09/03 07:25:23;;;;;;;;;;;;;;;27.93;42.60;93958.50;4933200;28;7277;-60
2022/09/03 07:27:50;;;;;;;;;;;;;;;27.93;42.67;93950.97;4947597;28;7467;-61
2022/09/03 07:30:20;;;;;;;;;;;;;;;27.92;42.56;93951.50;4928156;28;7431;-60
2022/09/03 07:32:46;;;;;;;;;;;;;;;27.91;42.47;93955.53;4929594;28;7467;-60
2022/09/03 07:35:15;;;;;;;;;;;;;;;27.89;42.41;93963.63;4941786;28;7003;-60
2022/09/03 07:37:42;;;;;;;;;;;;;;;27.89;43.35;93956.09;4944714;28;8785;-60
2022/09/03 07:40:09;;;;;;;;;;;;;;;27.90;42.85;93962.34;4927770;28;7265;-60
2022/09/03 07:42:39;;;;;;;;;;;;;;;27.87;42.79;93960.66;4945117;28;7196;-59
2022/09/03 07:45:11;;;;;;;;;;;;;;;27.88;43.38;93959.38;4927318;28;7027;-60
2022/09/03 07:47:37;;;;;;;;;;;;;;;27.91;42.78;93963.81;4943055;28;9414;-60
2022/09/03 07:50:04;;;;;;;;;;;;;;;27.91;43.02;93956.28;4971081;28;7090;-60
2022/09/03 07:52:35;;;;;;;;;;;;;;;27.91;43.27;93961.06;4984571;28;7244;-60
2022/09/03 07:55:03;;;;;;;;;;;;;;;27.90;42.95;93960.34;4997139;28;7251;-60
2022/09/03 07:57:31;;;;;;;;;;;;;;;27.90;42.98;93960.34;4984061;28;7003;-60
2022/09/03 07:59:58;;;;;;;;;;;;;;;27.90;43.17;93954.06;4969878;28;9470;-60
2022/09/03 08:02:24;;;;;;;;;;;;;;;27.91;42.70;93961.06;4997997;28;7391;-60
2022/09/03 08:04:52;;;;;;;;;;;;;;;27.88;42.95;93957.38;4984245;28;7302;-59
2022/09/03 08:07:20;;;;;;;;;;;;;;;27.87;43.02;93964.16;4983954;28;7124;-60
2022/09/03 08:09:48;;;;;;;;;;;;;;;27.88;42.86;93964.91;4983591;28;7345;-60
2022/09/03 08:12:15;;;;;;;;;;;;;;;27.86;42.87;93964.72;4998477;28;7438;-60
2022/09/03 08:14:43;;;;;;;;;;;;;;;27.86;43.04;93961.94;4964949;28;6993;-60
2022/09/03 08:17:12;;;;;;;;;;;;;;;27.84;43.03;93964.50;4998216;28;8870;-60
2022/09/03 08:19:39;;;;;;;;;;;;;;;27.86;43.19;93964.72;4982665;28;7202;-60
2022/09/03 08:22:10;;;;;;;;;;;;;;;27.86;43.02;93968.19;4996674;28;7231;-60
2022/09/03 08:24:35;;;;;;;;;;;;;;;27.85;43.25;93988.84;4981930;28;9629;-60
2022/09/03 08:27:02;;;;;;;;;;;;;;;27.88;42.61;93987.78;4998522;28;7284;-60
2022/09/03 08:29:28;;;;;;;;;;;;;;;27.87;42.90;93980.00;4982021;28;7114;-61
2022/09/03 08:31:56;;;;;;;;;;;;;;;27.88;42.81;93987.03;4980677;28;7281;-60
2022/09/03 08:34:23;;;;;;;;;;;;;;;27.89;43.16;93988.50;4978066;28;7380;-60
2022/09/03 08:36:51;;;;;;;;;;;;;;;27.88;43.16;93992.56;4988405;28;6848;-60
2022/09/03 08:39:20;;;;;;;;;;;;;;;27.90;42.60;94003.81;5001609;28;7228;-60
2022/09/03 08:41:52;;;;;;;;;;;;;;;27.92;42.77;94009.56;4997464;28;7365;-61
2022/09/03 08:44:48;;;;;;;;;;;;;;;27.94;42.78;94007.00;4995644;28;7180;-61
2022/09/03 08:48:02;;;;;;;;;;;;;;;27.95;42.60;94008.50;4990059;28;7541;-61
2022/09/03 08:50:34;;;;;;;;;;;;;;;27.92;42.34;94010.31;4985784;28;7599;-60
2022/09/03 08:53:54;;;;;;;;;;;;;;;27.95;42.64;94008.50;5006828;28;7038;-60
2022/09/03 08:56:37;;;;;;;;;;;;;;;27.95;42.22;94005.72;4954966;28;7242;-60
2022/09/03 08:59:04;;;;;;;;;;;;;;;27.93;42.30;94008.25;4956027;28;8519;-60
2022/09/03 09:01:58;;;;;;;;;;;;;;;27.95;42.27;94025.06;4958934;28;6944;-60
2022/09/03 09:04:52;;;;;;;;;;;;;;;27.96;42.28;94021.78;4956012;28;7311;-61
2022/09/03 09:07:45;;;;;;;;;;;;;;;27.97;42.17;94034.31;4935397;28;9115;-60
2022/09/03 09:10:49;;;;;;;;;;;;;;;27.96;42.36;94043.88;4929983;28;7524;-61
2022/09/03 09:13:54;;;;;;;;;;;;;;;27.95;42.27;94044.44;4956536;28;7515;-60
2022/09/03 09:16:44;;;;;;;;;;;;;;;27.93;42.54;94058.00;4949852;28;7122;-60
2022/09/03 09:19:23;;;;;;;;;;;;;;;27.93;42.21;94066.31;4954847;28;7454;-61
2022/09/03 09:22:17;;;;;;;;;;;;;;;27.92;42.55;94073.88;4958345;28;7303;-60
2022/09/03 09:24:51;;;;;;;;;;;;;;;27.93;42.28;94077.38;4934297;28;9831;-60
2022/09/03 09:27:34;;;;;;;;;;;;;;;27.93;42.71;94088.41;4951634;28;7543;-60
2022/09/03 09:30:04;;;;;;;;;;;;;;;27.91;42.48;94100.03;4935369;28;7164;-60
2022/09/03 09:32:37;;;;;;;;;;;;;;;27.92;42.79;94118.09;4969364;28;7425;-60
2022/09/03 09:35:10;;;;;;;;;;;;;;;27.93;42.69;94116.06;5001980;28;9698;-60
2022/09/03 09:38:26;;;;;;;;;;;;;;;27.93;42.39;94116.81;5000929;28;8512;-60
2022/09/03 09:41:20;;;;;;;;;;;;;;;27.94;42.44;94139.69;4949770;28;7782;-60
2022/09/03 09:44:04;;;;;;;;;;;;;;;27.92;42.55;94147.75;4935498;28;7557;-60
2022/09/03 09:46:40;;;;;;;;;;;;;;;27.92;42.40;94153.28;4951085;28;7684;-60
2022/09/03 09:49:46;;;;;;;;;;;;;;;27.91;42.17;94157.31;4948986;28;7348;-60
2022/09/03 09:52:14;;;;;;;;;;;;;;;27.91;42.28;94162.84;4893432;29;6910;-60
2022/09/03 09:54:53;;;;;;;;;;;;;;;27.92;42.42;94167.13;4900112;29;7219;-60
2022/09/03 09:57:34;;;;;;;;;;;;;;;27.93;42.57;94171.34;4895079;29;9623;-60
2022/09/03 10:00:27;;;;;;;;;;;;;;;27.95;42.00;94166.78;4894029;29;7368;-60
2022/09/03 10:02:54;;;;;;;;;;;;;;;27.95;42.63;94171.59;4880293;29;6982;-61
2022/09/03 10:05:43;;;;;;;;;;;;;;;27.95;42.36;94175.06;4887018;29;7682;-60
2022/09/03 10:08:20;;;;;;;;;;;;;;;27.92;42.19;94172.63;4892980;29;7204;-61
2022/09/03 10:10:58;;;;;;;;;;;;;;;27.91;42.28;94177.41;4889058;29;9531;-61
2022/09/03 10:13:41;;;;;;;;;;;;;;;27.93;42.50;94187.94;4894488;29;6980;-60
2022/09/03 10:16:22;;;;;;;;;;;;;;;27.94;42.26;94189.44;4895974;29;7931;-60
2022/09/03 10:19:18;;;;;;;;;;;;;;;27.94;42.11;94192.94;4884950;29;9432;-60
2022/09/03 10:22:17;;;;;;;;;;;;;;;27.94;42.41;94197.72;4889181;29;9581;-61
2022/09/03 10:25:02;;;;;;;;;;;;;;;27.92;42.58;94187.22;4889908;29;9219;-60
2022/09/03 10:27:28;;;;;;;;;;;;;;;27.92;42.47;94167.13;4910512;28;7968;-60
2022/09/03 10:30:08;;;;;;;;;;;;;;;27.94;42.12;94161.78;4926692;29;10409;-61
2022/09/03 10:33:04;;;;;;;;;;;;;;;27.97;42.29;94166.28;4946639;28;7503;-61
2022/09/03 10:35:45;;;;;;;;;;;;;;;27.97;42.70;94172.56;4937950;28;6941;-61
2022/09/03 10:38:47;;;;;;;;;;;;;;;27.98;42.21;94170.53;4933405;29;7509;-60
2022/09/03 10:41:58;;;;;;;;;;;;;;;27.99;42.39;94180.34;4950245;28;7044;-61
2022/09/03 10:44:25;;;;;;;;;;;;;;;27.99;42.41;94177.56;4941179;28;7346;-60
2022/09/03 10:47:18;;;;;;;;;;;;;;;28.00;42.47;94171.50;4937194;28;7220;-61
2022/09/03 10:50:15;;;;;;;;;;;;;;;28.01;42.41;94155.66;4945410;28;9233;-61
2022/09/03 10:52:48;;;;;;;;;;;;;;;28.02;42.00;94168.94;4946955;28;9334;-60
2022/09/03 10:55:41;;;;;;;;;;;;;;;28.02;42.69;94171.72;4940623;28;7527;-60
2022/09/03 10:58:27;;;;;;;;;;;;;;;28.03;42.26;94187.03;4943886;28;7439;-60
2022/09/03 11:01:36;;;;;;;;;;;;;;;28.04;42.40;94187.75;4934394;28;7190;-60
2022/09/03 11:04:18;;;;;;;;;;;;;;;28.06;42.76;94187.97;4889669;29;7242;-60
2022/09/03 11:06:52;;;;;;;;;;;;;;;28.05;42.35;94186.50;4879890;29;10819;-60
2022/09/03 11:09:25;;;;;;;;;;;;;;;28.04;42.48;94176.69;4898216;29;7402;-60
2022/09/03 11:12:12;;;;;;;;;;;;;;;28.04;42.78;94176.69;4904911;29;6968;-60
2022/09/03 11:14:48;;;;;;;;;;;;;;;27.98;42.71;94168.53;4887696;29;6946;-60
2022/09/03 11:17:25;;;;;;;;;;;;;;;28.02;42.29;94168.19;4891877;29;7253;-60
2022/09/03 11:20:07;;;;;;;;;;;;;;;28.03;42.52;94169.69;4897699;29;7136;-60
2022/09/03 11:22:34;;;;;;;;;;;;;;;28.05;42.68;94169.91;4909979;29;7010;-60
2022/09/03 11:25:27;;;;;;;;;;;;;;;28.05;43.00;94167.13;4912029;29;9363;-60
2022/09/03 11:28:24;;;;;;;;;;;;;;;28.05;42.50;94159.59;4915946;29;9017;-60
2022/09/03 11:31:18;;;;;;;;;;;;;;;28.06;42.54;94133.41;4876701;29;7188;-60
2022/09/03 11:33:53;;;;;;;;;;;;;;;28.05;42.54;94131.94;4860584;29;7541;-60
2022/09/03 11:36:38;;;;;;;;;;;;;;;28.04;42.58;94115.88;4875761;29;8634;-60
2022/09/03 11:39:30;;;;;;;;;;;;;;;28.05;42.78;94131.94;4874898;29;9472;-60
2022/09/03 11:42:08;;;;;;;;;;;;;;;28.08;42.81;94141.19;4952287;28;7227;-61
2022/09/03 11:44:39;;;;;;;;;;;;;;;28.07;42.35;94137.69;4969793;28;7215;-60
2022/09/03 11:47:23;;;;;;;;;;;;;;;28.10;42.63;94139.38;4947586;28;7028;-60
2022/09/03 11:50:15;;;;;;;;;;;;;;;28.10;42.48;94139.38;4950972;28;9573;-60
2022/09/03 11:53:15;;;;;;;;;;;;;;;28.09;42.74;94137.16;4967100;28;9478;-60
2022/09/03 11:56:21;;;;;;;;;;;;;;;28.09;42.85;94128.84;4914622;29;7002;-60
2022/09/03 11:59:14;;;;;;;;;;;;;;;28.12;42.73;94130.56;4887601;29;8245;-60
2022/09/03 12:02:04;;;;;;;;;;;;;;;28.10;42.89;94130.34;4895846;29;7486;-60
2022/09/03 12:04:46;;;;;;;;;;;;;;;28.08;43.08;94132.88;4889706;29;7220;-60
2022/09/03 12:07:35;;;;;;;;;;;;;;;28.10;43.11;94138.66;4887676;29;7822;-60
2022/09/03 12:10:50;;;;;;;;;;;;;;;28.10;42.89;94139.38;4894620;29;7211;-60
2022/09/03 12:13:34;;;;;;;;;;;;;;;28.10;42.62;94128.31;4899117;29;7590;-60
2022/09/03 12:16:24;;;;;;;;;;;;;;;28.10;42.90;94135.88;4903299;29;9408;-60
2022/09/03 12:18:56;;;;;;;;;;;;;;;28.12;42.56;94138.84;4887034;29;9688;-61
2022/09/03 12:21:27;;;;;;;;;;;;;;;28.14;42.85;94147.34;4890180;29;7263;-60
2022/09/03 12:24:13;;;;;;;;;;;;;;;28.15;42.97;94152.34;4873858;29;9021;-60
2022/09/03 12:26:49;;;;;;;;;;;;;;;28.17;42.90;94152.56;4872943;29;7236;-60
2022/09/03 12:29:35;;;;;;;;;;;;;;;28.19;43.25;94166.59;4886405;29;7573;-60
2022/09/03 12:32:21;;;;;;;;;;;;;;;28.21;42.91;94163.28;4892537;29;6973;-61
2022/09/03 12:34:57;;;;;;;;;;;;;;;28.21;42.33;94166.03;4932490;28;7236;-60
2022/09/03 12:37:32;;;;;;;;;;;;;;;28.18;43.31;94167.88;4925351;29;7232;-60
2022/09/03 12:39:58;;;;;;;;;;;;;;;28.19;43.31;94163.06;4922513;29;7712;-60
2022/09/03 12:42:37;;;;;;;;;;;;;;;28.19;43.30;94171.38;4930581;28;7177;-60
2022/09/03 12:45:20;;;;;;;;;;;;;;;28.22;42.90;94167.56;4920514;29;8444;-60
2022/09/03 12:48:11;;;;;;;;;;;;;;;28.25;43.22;94163.72;4910179;29;8007;-60
2022/09/03 12:51:07;;;;;;;;;;;;;;;28.22;43.16;94157.25;4958329;28;7323;-61
2022/09/03 12:53:42;;;;;;;;;;;;;;;28.21;43.49;94161.28;4984562;28;7237;-60
2022/09/03 12:56:09;;;;;;;;;;;;;;;28.21;43.50;94157.75;4989263;28;7293;-60
2022/09/03 12:59:15;;;;;;;;;;;;;;;28.21;43.34;94146.69;4986385;28;6947;-60
2022/09/03 13:01:53;;;;;;;;;;;;;;;28.20;43.08;94136.91;4973187;28;7148;-60
2022/09/03 13:04:34;;;;;;;;;;;;;;;28.22;43.05;94134.38;4987324;28;8562;-60
2022/09/03 13:07:21;;;;;;;;;;;;;;;28.23;43.47;94133.81;4989147;28;7541;-60
2022/09/03 13:09:49;;;;;;;;;;;;;;;28.24;43.12;94137.34;4983950;28;6990;-60
2022/09/03 13:12:48;;;;;;;;;;;;;;;28.26;43.33;94130.00;5008764;28;6979;-60
2022/09/03 13:15:22;;;;;;;;;;;;;;;28.26;43.26;94132.00;4895617;29;7228;-60
2022/09/03 13:18:07;;;;;;;;;;;;;;;28.30;43.52;94124.88;4912026;29;7221;-59
2022/09/03 13:20:58;;;;;;;;;;;;;;;28.31;42.70;94117.34;4909719;29;7224;-59
2022/09/03 13:23:50;;;;;;;;;;;;;;;28.30;43.01;94113.06;4898009;29;9055;-59
2022/09/03 13:26:35;;;;;;;;;;;;;;;28.31;43.28;94103.50;4903083;29;8753;-60
2022/09/03 13:29:38;;;;;;;;;;;;;;;28.31;43.98;94098.72;4910532;29;9489;-60
2022/09/03 13:32:34;;;;;;;;;;;;;;;28.34;43.08;94099.66;4912072;29;8067;-59
2022/09/03 13:35:10;;;;;;;;;;;;;;;28.34;43.29;94094.13;4911445;29;7148;-59
2022/09/03 13:38:30;;;;;;;;;;;;;;;28.36;43.51;94099.88;4913713;29;7564;-60
2022/09/03 13:41:33;;;;;;;;;;;;;;;28.40;43.31;94102.31;4879294;29;7182;-60
2022/09/03 13:44:38;;;;;;;;;;;;;;;28.41;43.33;94096.22;4893419;29;7012;-60
2022/09/03 13:47:38;;;;;;;;;;;;;;;28.42;43.53;94091.44;4890578;29;7623;-61
2022/09/03 13:50:24;;;;;;;;;;;;;;;28.44;43.86;94095.16;4814960;29;7291;-59
2022/09/03 13:52:58;;;;;;;;;;;;;;;28.44;43.59;94086.88;4852282;29;9383;-60
2022/09/03 13:56:05;;;;;;;;;;;;;;;28.47;43.34;94096.13;4844911;29;7460;-60
2022/09/03 13:58:41;;;;;;;;;;;;;;;28.46;44.04;94087.06;4843473;29;7171;-60
2022/09/03 14:01:24;;;;;;;;;;;;;;;28.45;43.93;94085.56;4825963;29;7247;-60
2022/09/03 14:03:56;;;;;;;;;;;;;;;28.45;43.87;94085.56;4848479;29;9447;-60
2022/09/03 14:07:12;;;;;;;;;;;;;;;28.46;44.65;94089.84;4831356;29;7269;-60
2022/09/03 14:10:04;;;;;;;;;;;;;;;28.49;44.45;94086.00;4829344;29;7459;-60